sensor_id;sensor_type;location;lat;lon;timestamp;temperature;humidity
670;DHT22;317;48.758;9.302;2022-08-19T00:01:55;21.40;99.90
670;DHT22;317;48.758;9.302;2022-08-19T00:04:25;21.40;99.90
670;DHT22;317;48.758;9.302;2022-08-19T00:06:52;21.40;99.90
670;DHT22;317;48.758;9.302;2022-08-19T00:09:21;21.50;99.90
670;DHT22;317;48.758;9.302;2022-08-19T00:11:50;21.50;99.90
670;DHT22;317;48.758;9.302;2022-08-19T00:14:17;21.50;99.90
670;DHT22;317;48.758;9.302;2022-08-19T00:16:46;21.50;99.90
670;DHT22;317;48.758;9.302;2022-08-19T00:19:14;21.50;99.90
670;DHT22;317;48.758;9.302;2022-08-19T00:21:41;21.40;99.90
670;DHT22;317;48.758;9.302;2022-08-19T00:24:10;21.40;99.90
670;DHT22;317;48.758;9.302;2022-08-19T00:26:37;21.30;99.90
670;DHT22;317;48.758;9.302;2022-08-19T00:29:07;21.20;99.90
670;DHT22;317;48.758;9.302;2022-08-19T00:31:35;21.30;99.90
670;DHT22;317;48.758;9.302;2022-08-19T00:34:02;21.20;99.90
670;DHT22;317;48.758;9.302;2022-08-19T00:36:29;21.20;99.90
670;DHT22;317;48.758;9.302;2022-08-19T00:38:57;21.20;99.90
670;DHT22;317;48.758;9.302;2022-08-19T00:41:25;21.20;99.90
670;DHT22;317;48.758;9.302;2022-08-19T00:44:00;21.20;99.90
670;DHT22;317;48.758;9.302;2022-08-19T00:46:29;21.10;99.90
670;DHT22;317;48.758;9.302;2022-08-19T00:48:57;21.10;99.90
670;DHT22;317;48.758;9.302;2022-08-19T00:51:24;21.10;99.90
670;DHT22;317;48.758;9.302;2022-08-19T00:53:52;21.10;99.90
670;DHT22;317;48.758;9.302;2022-08-19T00:56:19;21.10;99.90
670;DHT22;317;48.758;9.302;2022-08-19T00:58:47;21.10;99.90
670;DHT22;317;48.758;9.302;2022-08-19T01:01:14;21.00;99.90
670;DHT22;317;48.758;9.302;2022-08-19T01:03:42;21.00;99.90
670;DHT22;317;48.758;9.302;2022-08-19T01:06:09;21.00;99.90
670;DHT22;317;48.758;9.302;2022-08-19T01:08:36;21.00;99.90
670;DHT22;317;48.758;9.302;2022-08-19T01:11:03;20.90;99.90
670;DHT22;317;48.758;9.302;2022-08-19T01:13:32;20.90;99.90
670;DHT22;317;48.758;9.302;2022-08-19T01:16:02;21.00;99.90
670;DHT22;317;48.758;9.302;2022-08-19T01:18:30;21.00;99.90
670;DHT22;317;48.758;9.302;2022-08-19T01:21:02;20.90;99.90
670;DHT22;317;48.758;9.302;2022-08-19T01:23:33;20.90;99.90
670;DHT22;317;48.758;9.302;2022-08-19T01:26:10;20.90;99.90
670;DHT22;317;48.758;9.302;2022-08-19T01:28:38;20.90;99.90
670;DHT22;317;48.758;9.302;2022-08-19T01:31:05;20.90;99.90
670;DHT22;317;48.758;9.302;2022-08-19T01:33:33;20.90;99.90
670;DHT22;317;48.758;9.302;2022-08-19T01:36:09;20.90;99.90
670;DHT22;317;48.758;9.302;2022-08-19T01:38:39;20.90;99.90
670;DHT22;317;48.758;9.302;2022-08-19T01:41:08;20.90;99.90
670;DHT22;317;48.758;9.302;2022-08-19T01:43:35;20.90;99.90
670;DHT22;317;48.758;9.302;2022-08-19T01:46:03;20.90;99.90
670;DHT22;317;48.758;9.302;2022-08-19T01:48:34;20.90;99.90
670;DHT22;317;48.758;9.302;2022-08-19T01:51:01;20.90;99.90
670;DHT22;317;48.758;9.302;2022-08-19T01:53:28;20.90;99.90
670;DHT22;317;48.758;9.302;2022-08-19T01:55:57;20.90;99.90
670;DHT22;317;48.758;9.302;2022-08-19T01:58:27;20.90;99.90
670;DHT22;317;48.758;9.302;2022-08-19T02:00:56;20.90;99.90
670;DHT22;317;48.758;9.302;2022-08-19T02:03:23;20.80;99.90
670;DHT22;317;48.758;9.302;2022-08-19T02:05:55;20.90;99.90
670;DHT22;317;48.758;9.302;2022-08-19T02:08:22;20.90;99.90
670;DHT22;317;48.758;9.302;2022-08-19T02:10:49;20.90;99.90
670;DHT22;317;48.758;9.302;2022-08-19T02:13:17;20.80;99.90
670;DHT22;317;48.758;9.302;2022-08-19T02:15:44;20.80;99.90
670;DHT22;317;48.758;9.302;2022-08-19T02:18:11;20.80;99.90
670;DHT22;317;48.758;9.302;2022-08-19T02:20:39;20.80;99.90
670;DHT22;317;48.758;9.302;2022-08-19T02:23:07;20.80;99.90
670;DHT22;317;48.758;9.302;2022-08-19T02:25:34;20.80;99.90
670;DHT22;317;48.758;9.302;2022-08-19T02:28:01;20.80;99.90
670;DHT22;317;48.758;9.302;2022-08-19T02:30:30;20.80;99.90
670;DHT22;317;48.758;9.302;2022-08-19T02:32:56;20.80;99.90
670;DHT22;317;48.758;9.302;2022-08-19T02:35:24;20.70;99.90
670;DHT22;317;48.758;9.302;2022-08-19T02:37:51;20.70;99.90
670;DHT22;317;48.758;9.302;2022-08-19T02:40:35;20.70;99.90
670;DHT22;317;48.758;9.302;2022-08-19T02:43:03;20.70;99.90
670;DHT22;317;48.758;9.302;2022-08-19T02:45:33;20.70;99.90
670;DHT22;317;48.758;9.302;2022-08-19T02:48:00;20.70;99.90
670;DHT22;317;48.758;9.302;2022-08-19T02:50:26;20.60;99.90
670;DHT22;317;48.758;9.302;2022-08-19T02:52:53;20.60;99.90
670;DHT22;317;48.758;9.302;2022-08-19T02:55:20;20.60;99.90
670;DHT22;317;48.758;9.302;2022-08-19T02:57:47;20.50;99.90
670;DHT22;317;48.758;9.302;2022-08-19T03:00:15;20.50;99.90
670;DHT22;317;48.758;9.302;2022-08-19T03:02:43;20.50;99.90
670;DHT22;317;48.758;9.302;2022-08-19T03:05:10;20.40;99.90
670;DHT22;317;48.758;9.302;2022-08-19T03:07:37;20.40;99.90
670;DHT22;317;48.758;9.302;2022-08-19T03:10:05;20.40;99.90
670;DHT22;317;48.758;9.302;2022-08-19T03:12:35;20.40;99.90
670;DHT22;317;48.758;9.302;2022-08-19T03:15:03;20.40;99.90
670;DHT22;317;48.758;9.302;2022-08-19T03:17:30;20.40;99.90
670;DHT22;317;48.758;9.302;2022-08-19T03:19:58;20.40;99.90
670;DHT22;317;48.758;9.302;2022-08-19T03:22:25;20.30;99.90
670;DHT22;317;48.758;9.302;2022-08-19T03:24:52;20.30;99.90
670;DHT22;317;48.758;9.302;2022-08-19T03:27:19;20.30;99.90
670;DHT22;317;48.758;9.302;2022-08-19T03:29:46;20.30;99.90
670;DHT22;317;48.758;9.302;2022-08-19T03:32:13;20.20;99.90
670;DHT22;317;48.758;9.302;2022-08-19T03:34:40;20.20;99.90
670;DHT22;317;48.758;9.302;2022-08-19T03:37:10;20.20;99.90
670;DHT22;317;48.758;9.302;2022-08-19T03:39:39;20.20;99.90
670;DHT22;317;48.758;9.302;2022-08-19T03:42:08;20.20;99.90
670;DHT22;317;48.758;9.302;2022-08-19T03:44:35;20.10;99.90
670;DHT22;317;48.758;9.302;2022-08-19T03:47:03;20.20;99.90
670;DHT22;317;48.758;9.302;2022-08-19T03:49:31;20.10;99.90
670;DHT22;317;48.758;9.302;2022-08-19T03:52:00;20.10;99.90
670;DHT22;317;48.758;9.302;2022-08-19T03:54:28;20.10;99.90
670;DHT22;317;48.758;9.302;2022-08-19T03:56:56;20.10;99.90
670;DHT22;317;48.758;9.302;2022-08-19T03:59:27;20.10;99.90
670;DHT22;317;48.758;9.302;2022-08-19T04:01:55;20.00;99.90
670;DHT22;317;48.758;9.302;2022-08-19T04:04:22;20.00;99.90
670;DHT22;317;48.758;9.302;2022-08-19T04:06:50;20.00;99.90
670;DHT22;317;48.758;9.302;2022-08-19T04:09:18;20.00;99.90
670;DHT22;317;48.758;9.302;2022-08-19T04:11:48;20.00;99.90
670;DHT22;317;48.758;9.302;2022-08-19T04:14:19;20.00;99.90
670;DHT22;317;48.758;9.302;2022-08-19T04:16:47;20.00;99.90
670;DHT22;317;48.758;9.302;2022-08-19T04:19:14;20.00;99.90
670;DHT22;317;48.758;9.302;2022-08-19T04:21:43;20.00;99.90
670;DHT22;317;48.758;9.302;2022-08-19T04:24:10;19.90;99.90
670;DHT22;317;48.758;9.302;2022-08-19T04:26:38;20.00;99.90
670;DHT22;317;48.758;9.302;2022-08-19T04:29:08;20.00;99.90
670;DHT22;317;48.758;9.302;2022-08-19T04:31:35;20.00;99.90
670;DHT22;317;48.758;9.302;2022-08-19T04:34:05;19.90;99.90
670;DHT22;317;48.758;9.302;2022-08-19T04:36:35;19.90;99.90
670;DHT22;317;48.758;9.302;2022-08-19T04:39:05;19.90;99.90
670;DHT22;317;48.758;9.302;2022-08-19T04:41:32;19.90;99.90
670;DHT22;317;48.758;9.302;2022-08-19T04:44:18;19.90;99.90
670;DHT22;317;48.758;9.302;2022-08-19T04:46:46;19.90;99.90
670;DHT22;317;48.758;9.302;2022-08-19T04:49:13;19.80;99.90
670;DHT22;317;48.758;9.302;2022-08-19T04:51:45;19.80;99.90
670;DHT22;317;48.758;9.302;2022-08-19T04:54:12;19.90;99.90
670;DHT22;317;48.758;9.302;2022-08-19T04:56:40;19.80;99.90
670;DHT22;317;48.758;9.302;2022-08-19T04:59:07;19.80;99.90
670;DHT22;317;48.758;9.302;2022-08-19T05:01:35;19.90;99.90
670;DHT22;317;48.758;9.302;2022-08-19T05:04:05;19.90;99.90
670;DHT22;317;48.758;9.302;2022-08-19T05:06:33;19.90;99.90
670;DHT22;317;48.758;9.302;2022-08-19T05:09:01;19.90;99.90
670;DHT22;317;48.758;9.302;2022-08-19T05:11:31;19.90;99.90
670;DHT22;317;48.758;9.302;2022-08-19T05:13:58;19.90;99.90
670;DHT22;317;48.758;9.302;2022-08-19T05:16:26;19.90;99.90
670;DHT22;317;48.758;9.302;2022-08-19T05:18:54;19.90;99.90
670;DHT22;317;48.758;9.302;2022-08-19T05:21:40;20.00;99.90
670;DHT22;317;48.758;9.302;2022-08-19T05:24:25;20.00;99.90
670;DHT22;317;48.758;9.302;2022-08-19T05:26:53;20.00;99.90
670;DHT22;317;48.758;9.302;2022-08-19T05:29:23;20.00;99.90
670;DHT22;317;48.758;9.302;2022-08-19T05:31:51;20.00;99.90
670;DHT22;317;48.758;9.302;2022-08-19T05:34:21;20.00;99.90
670;DHT22;317;48.758;9.302;2022-08-19T05:36:51;20.00;99.90
670;DHT22;317;48.758;9.302;2022-08-19T05:39:21;20.00;99.90
670;DHT22;317;48.758;9.302;2022-08-19T05:41:50;20.00;99.90
670;DHT22;317;48.758;9.302;2022-08-19T05:44:18;20.00;99.90
670;DHT22;317;48.758;9.302;2022-08-19T05:46:46;20.00;99.90
670;DHT22;317;48.758;9.302;2022-08-19T05:49:14;20.00;99.90
670;DHT22;317;48.758;9.302;2022-08-19T05:51:46;20.00;99.90
670;DHT22;317;48.758;9.302;2022-08-19T05:54:13;20.00;99.90
670;DHT22;317;48.758;9.302;2022-08-19T05:56:40;20.00;99.90
670;DHT22;317;48.758;9.302;2022-08-19T05:59:09;20.00;99.90
670;DHT22;317;48.758;9.302;2022-08-19T06:01:37;20.00;99.90
670;DHT22;317;48.758;9.302;2022-08-19T06:04:05;20.00;99.90
670;DHT22;317;48.758;9.302;2022-08-19T06:06:32;20.00;99.90
670;DHT22;317;48.758;9.302;2022-08-19T06:09:02;20.10;99.90
670;DHT22;317;48.758;9.302;2022-08-19T06:11:35;20.10;99.90
670;DHT22;317;48.758;9.302;2022-08-19T06:14:05;20.10;99.90
670;DHT22;317;48.758;9.302;2022-08-19T06:16:35;20.10;99.90
670;DHT22;317;48.758;9.302;2022-08-19T06:19:06;20.00;99.90
670;DHT22;317;48.758;9.302;2022-08-19T06:21:35;20.00;99.90
670;DHT22;317;48.758;9.302;2022-08-19T06:24:06;20.00;99.90
670;DHT22;317;48.758;9.302;2022-08-19T06:26:37;20.00;99.90
670;DHT22;317;48.758;9.302;2022-08-19T06:29:04;20.00;99.90
670;DHT22;317;48.758;9.302;2022-08-19T06:31:33;20.10;99.90
670;DHT22;317;48.758;9.302;2022-08-19T06:34:02;20.10;99.90
670;DHT22;317;48.758;9.302;2022-08-19T06:36:31;20.10;99.90
670;DHT22;317;48.758;9.302;2022-08-19T06:39:00;20.10;99.90
670;DHT22;317;48.758;9.302;2022-08-19T06:41:30;20.10;99.90
670;DHT22;317;48.758;9.302;2022-08-19T06:43:57;20.10;99.90
670;DHT22;317;48.758;9.302;2022-08-19T06:46:24;20.10;99.90
670;DHT22;317;48.758;9.302;2022-08-19T06:48:53;20.10;99.90
670;DHT22;317;48.758;9.302;2022-08-19T06:51:21;20.10;99.90
670;DHT22;317;48.758;9.302;2022-08-19T06:53:52;20.10;99.90
670;DHT22;317;48.758;9.302;2022-08-19T06:56:22;20.20;99.90
670;DHT22;317;48.758;9.302;2022-08-19T06:58:51;20.20;99.90
670;DHT22;317;48.758;9.302;2022-08-19T07:01:19;20.20;99.90
670;DHT22;317;48.758;9.302;2022-08-19T07:03:46;20.20;99.90
670;DHT22;317;48.758;9.302;2022-08-19T07:06:15;20.20;99.90
670;DHT22;317;48.758;9.302;2022-08-19T07:08:44;20.20;99.90
670;DHT22;317;48.758;9.302;2022-08-19T07:11:13;20.30;99.90
670;DHT22;317;48.758;9.302;2022-08-19T07:13:41;20.30;99.90
670;DHT22;317;48.758;9.302;2022-08-19T07:16:13;20.20;99.90
670;DHT22;317;48.758;9.302;2022-08-19T07:18:42;20.20;99.90
670;DHT22;317;48.758;9.302;2022-08-19T07:21:13;20.20;99.90
670;DHT22;317;48.758;9.302;2022-08-19T07:23:41;20.20;99.90
670;DHT22;317;48.758;9.302;2022-08-19T07:26:11;20.20;99.90
670;DHT22;317;48.758;9.302;2022-08-19T07:28:38;20.20;99.90
670;DHT22;317;48.758;9.302;2022-08-19T07:31:06;20.20;99.90
670;DHT22;317;48.758;9.302;2022-08-19T07:33:34;20.20;99.90
670;DHT22;317;48.758;9.302;2022-08-19T07:36:03;20.20;99.90
670;DHT22;317;48.758;9.302;2022-08-19T07:38:30;20.20;99.90
670;DHT22;317;48.758;9.302;2022-08-19T07:40:57;20.20;99.90
670;DHT22;317;48.758;9.302;2022-08-19T07:43:24;20.20;99.90
670;DHT22;317;48.758;9.302;2022-08-19T07:45:52;20.20;99.90
670;DHT22;317;48.758;9.302;2022-08-19T07:48:22;20.20;99.90
670;DHT22;317;48.758;9.302;2022-08-19T07:50:53;20.20;99.90
670;DHT22;317;48.758;9.302;2022-08-19T07:53:21;20.30;99.90
670;DHT22;317;48.758;9.302;2022-08-19T07:55:48;20.30;99.90
670;DHT22;317;48.758;9.302;2022-08-19T07:58:18;20.30;99.90
670;DHT22;317;48.758;9.302;2022-08-19T08:00:48;20.30;99.90
670;DHT22;317;48.758;9.302;2022-08-19T08:03:18;20.30;99.90
670;DHT22;317;48.758;9.302;2022-08-19T08:05:48;20.40;99.90
670;DHT22;317;48.758;9.302;2022-08-19T08:08:34;20.40;99.90
670;DHT22;317;48.758;9.302;2022-08-19T08:11:20;20.40;99.90
670;DHT22;317;48.758;9.302;2022-08-19T08:13:48;20.40;99.90
670;DHT22;317;48.758;9.302;2022-08-19T08:16:15;20.40;99.90
670;DHT22;317;48.758;9.302;2022-08-19T08:18:42;20.30;99.90
670;DHT22;317;48.758;9.302;2022-08-19T08:21:09;20.40;99.90
670;DHT22;317;48.758;9.302;2022-08-19T08:23:37;20.30;99.90
670;DHT22;317;48.758;9.302;2022-08-19T08:26:04;20.40;99.90
670;DHT22;317;48.758;9.302;2022-08-19T08:28:31;20.30;99.90
670;DHT22;317;48.758;9.302;2022-08-19T08:30:58;20.40;99.90
670;DHT22;317;48.758;9.302;2022-08-19T08:33:28;20.40;99.90
670;DHT22;317;48.758;9.302;2022-08-19T08:35:55;20.40;99.90
670;DHT22;317;48.758;9.302;2022-08-19T08:38:22;20.30;99.90
670;DHT22;317;48.758;9.302;2022-08-19T08:40:53;20.40;99.90
670;DHT22;317;48.758;9.302;2022-08-19T08:43:29;20.40;99.90
670;DHT22;317;48.758;9.302;2022-08-19T08:46:01;20.50;99.90
670;DHT22;317;48.758;9.302;2022-08-19T08:48:37;20.50;99.90
670;DHT22;317;48.758;9.302;2022-08-19T08:51:09;20.50;99.90
670;DHT22;317;48.758;9.302;2022-08-19T08:53:38;20.60;99.90
670;DHT22;317;48.758;9.302;2022-08-19T08:56:08;20.60;99.90
670;DHT22;317;48.758;9.302;2022-08-19T08:58:48;20.70;99.90
670;DHT22;317;48.758;9.302;2022-08-19T09:01:17;20.80;99.90
670;DHT22;317;48.758;9.302;2022-08-19T09:03:44;20.70;99.90
670;DHT22;317;48.758;9.302;2022-08-19T09:06:14;20.80;99.90
670;DHT22;317;48.758;9.302;2022-08-19T09:08:49;20.70;99.90
670;DHT22;317;48.758;9.302;2022-08-19T09:11:31;20.80;99.90
670;DHT22;317;48.758;9.302;2022-08-19T09:14:09;20.80;99.90
670;DHT22;317;48.758;9.302;2022-08-19T09:16:41;20.80;99.90
670;DHT22;317;48.758;9.302;2022-08-19T09:19:09;20.80;99.90
670;DHT22;317;48.758;9.302;2022-08-19T09:21:36;20.80;99.90
670;DHT22;317;48.758;9.302;2022-08-19T09:24:04;20.90;99.90
670;DHT22;317;48.758;9.302;2022-08-19T09:26:33;20.80;99.90
670;DHT22;317;48.758;9.302;2022-08-19T09:29:00;20.80;99.90
670;DHT22;317;48.758;9.302;2022-08-19T09:31:30;20.80;99.90
670;DHT22;317;48.758;9.302;2022-08-19T09:33:58;20.80;99.90
670;DHT22;317;48.758;9.302;2022-08-19T09:36:27;20.80;99.90
670;DHT22;317;48.758;9.302;2022-08-19T09:38:58;20.80;99.90
670;DHT22;317;48.758;9.302;2022-08-19T09:41:26;20.80;99.90
670;DHT22;317;48.758;9.302;2022-08-19T09:43:58;20.80;99.90
670;DHT22;317;48.758;9.302;2022-08-19T09:46:26;20.90;99.90
670;DHT22;317;48.758;9.302;2022-08-19T09:48:54;20.90;99.90
670;DHT22;317;48.758;9.302;2022-08-19T09:51:25;20.90;99.90
670;DHT22;317;48.758;9.302;2022-08-19T09:53:54;21.00;99.90
670;DHT22;317;48.758;9.302;2022-08-19T09:56:22;21.00;99.90
670;DHT22;317;48.758;9.302;2022-08-19T09:58:50;21.00;99.90
670;DHT22;317;48.758;9.302;2022-08-19T10:01:21;21.10;99.90
670;DHT22;317;48.758;9.302;2022-08-19T10:03:50;21.10;99.90
670;DHT22;317;48.758;9.302;2022-08-19T10:06:19;21.10;99.90
670;DHT22;317;48.758;9.302;2022-08-19T10:08:46;21.10;99.90
670;DHT22;317;48.758;9.302;2022-08-19T10:11:13;21.10;99.90
670;DHT22;317;48.758;9.302;2022-08-19T10:13:43;21.10;99.90
670;DHT22;317;48.758;9.302;2022-08-19T10:16:11;21.20;99.90
670;DHT22;317;48.758;9.302;2022-08-19T10:18:41;21.20;99.90
670;DHT22;317;48.758;9.302;2022-08-19T10:21:10;21.20;99.90
670;DHT22;317;48.758;9.302;2022-08-19T10:23:38;21.20;99.90
670;DHT22;317;48.758;9.302;2022-08-19T10:26:06;21.30;99.90
670;DHT22;317;48.758;9.302;2022-08-19T10:28:33;21.20;99.90
670;DHT22;317;48.758;9.302;2022-08-19T10:31:04;21.20;99.90
670;DHT22;317;48.758;9.302;2022-08-19T10:33:32;21.10;99.90
670;DHT22;317;48.758;9.302;2022-08-19T10:36:02;21.10;99.90
670;DHT22;317;48.758;9.302;2022-08-19T10:38:30;21.10;99.90
670;DHT22;317;48.758;9.302;2022-08-19T10:40:58;21.10;99.90
670;DHT22;317;48.758;9.302;2022-08-19T10:43:32;21.10;99.90
670;DHT22;317;48.758;9.302;2022-08-19T10:46:00;21.20;99.90
670;DHT22;317;48.758;9.302;2022-08-19T10:48:27;21.20;99.90
670;DHT22;317;48.758;9.302;2022-08-19T10:50:54;21.20;99.90
670;DHT22;317;48.758;9.302;2022-08-19T10:53:36;21.20;99.90
670;DHT22;317;48.758;9.302;2022-08-19T10:56:03;21.30;99.90
670;DHT22;317;48.758;9.302;2022-08-19T10:58:47;21.30;99.90
670;DHT22;317;48.758;9.302;2022-08-19T11:01:14;21.30;99.90
670;DHT22;317;48.758;9.302;2022-08-19T11:03:41;21.30;99.90
670;DHT22;317;48.758;9.302;2022-08-19T11:06:11;21.20;99.90
670;DHT22;317;48.758;9.302;2022-08-19T11:08:41;21.20;99.90
670;DHT22;317;48.758;9.302;2022-08-19T11:11:11;21.20;99.90
670;DHT22;317;48.758;9.302;2022-08-19T11:13:40;21.10;99.90
670;DHT22;317;48.758;9.302;2022-08-19T11:16:12;21.00;99.90
670;DHT22;317;48.758;9.302;2022-08-19T11:18:43;21.00;99.90
670;DHT22;317;48.758;9.302;2022-08-19T11:21:13;20.90;99.90
670;DHT22;317;48.758;9.302;2022-08-19T11:23:44;20.80;99.90
670;DHT22;317;48.758;9.302;2022-08-19T11:26:12;20.80;99.90
670;DHT22;317;48.758;9.302;2022-08-19T11:28:40;20.70;99.90
670;DHT22;317;48.758;9.302;2022-08-19T11:31:09;20.70;99.90
670;DHT22;317;48.758;9.302;2022-08-19T11:33:37;20.70;99.90
670;DHT22;317;48.758;9.302;2022-08-19T11:36:04;20.70;99.90
670;DHT22;317;48.758;9.302;2022-08-19T11:38:31;20.60;99.90
670;DHT22;317;48.758;9.302;2022-08-19T11:41:03;20.60;99.90
670;DHT22;317;48.758;9.302;2022-08-19T11:43:30;20.50;99.90
670;DHT22;317;48.758;9.302;2022-08-19T11:45:57;20.60;99.90
670;DHT22;317;48.758;9.302;2022-08-19T11:48:24;20.50;99.90
670;DHT22;317;48.758;9.302;2022-08-19T11:50:52;20.50;99.90
670;DHT22;317;48.758;9.302;2022-08-19T11:53:21;20.60;99.90
670;DHT22;317;48.758;9.302;2022-08-19T11:55:48;20.70;99.90
670;DHT22;317;48.758;9.302;2022-08-19T11:58:17;20.70;99.90
670;DHT22;317;48.758;9.302;2022-08-19T12:00:44;20.70;99.90
670;DHT22;317;48.758;9.302;2022-08-19T12:03:12;20.80;99.90
670;DHT22;317;48.758;9.302;2022-08-19T12:05:39;20.90;99.90
670;DHT22;317;48.758;9.302;2022-08-19T12:08:07;20.80;99.90
670;DHT22;317;48.758;9.302;2022-08-19T12:10:34;20.90;99.90
670;DHT22;317;48.758;9.302;2022-08-19T12:13:02;20.90;99.90
670;DHT22;317;48.758;9.302;2022-08-19T12:15:35;20.90;99.90
670;DHT22;317;48.758;9.302;2022-08-19T12:18:02;20.90;99.90
670;DHT22;317;48.758;9.302;2022-08-19T12:20:29;21.00;99.90
670;DHT22;317;48.758;9.302;2022-08-19T12:22:55;21.00;99.90
670;DHT22;317;48.758;9.302;2022-08-19T12:25:22;21.00;99.90
670;DHT22;317;48.758;9.302;2022-08-19T12:27:49;21.00;99.90
670;DHT22;317;48.758;9.302;2022-08-19T12:30:16;21.00;99.90
670;DHT22;317;48.758;9.302;2022-08-19T12:32:44;21.00;99.90
670;DHT22;317;48.758;9.302;2022-08-19T12:35:11;21.00;99.90
670;DHT22;317;48.758;9.302;2022-08-19T12:37:39;20.90;99.90
670;DHT22;317;48.758;9.302;2022-08-19T12:40:10;20.80;99.90
670;DHT22;317;48.758;9.302;2022-08-19T12:42:38;20.90;99.90
670;DHT22;317;48.758;9.302;2022-08-19T12:45:08;20.80;99.90
670;DHT22;317;48.758;9.302;2022-08-19T12:47:35;20.90;99.90
670;DHT22;317;48.758;9.302;2022-08-19T12:50:03;20.90;99.90
670;DHT22;317;48.758;9.302;2022-08-19T12:52:35;20.80;99.90
670;DHT22;317;48.758;9.302;2022-08-19T12:55:05;20.90;99.90
670;DHT22;317;48.758;9.302;2022-08-19T12:57:32;20.90;99.90
670;DHT22;317;48.758;9.302;2022-08-19T13:00:04;21.00;99.90
670;DHT22;317;48.758;9.302;2022-08-19T13:02:34;21.10;99.90
670;DHT22;317;48.758;9.302;2022-08-19T13:05:03;21.10;99.90
670;DHT22;317;48.758;9.302;2022-08-19T13:07:31;21.10;99.90
670;DHT22;317;48.758;9.302;2022-08-19T13:09:58;21.10;99.90
670;DHT22;317;48.758;9.302;2022-08-19T13:12:25;21.00;99.90
670;DHT22;317;48.758;9.302;2022-08-19T13:14:54;21.10;99.90
670;DHT22;317;48.758;9.302;2022-08-19T13:17:21;21.10;99.90
670;DHT22;317;48.758;9.302;2022-08-19T13:19:48;21.10;99.90
670;DHT22;317;48.758;9.302;2022-08-19T13:22:17;21.00;99.90
670;DHT22;317;48.758;9.302;2022-08-19T13:24:44;21.10;99.90
670;DHT22;317;48.758;9.302;2022-08-19T13:27:11;21.00;99.90
670;DHT22;317;48.758;9.302;2022-08-19T13:29:39;20.90;99.90
670;DHT22;317;48.758;9.302;2022-08-19T13:32:23;20.90;99.90
670;DHT22;317;48.758;9.302;2022-08-19T13:35:08;20.90;99.90
670;DHT22;317;48.758;9.302;2022-08-19T13:37:36;20.80;99.90
670;DHT22;317;48.758;9.302;2022-08-19T13:40:12;20.70;99.90
670;DHT22;317;48.758;9.302;2022-08-19T13:42:41;20.60;99.90
670;DHT22;317;48.758;9.302;2022-08-19T13:45:09;20.70;99.90
670;DHT22;317;48.758;9.302;2022-08-19T13:47:38;20.60;99.90
670;DHT22;317;48.758;9.302;2022-08-19T13:50:10;20.60;99.90
670;DHT22;317;48.758;9.302;2022-08-19T13:52:39;20.50;99.90
670;DHT22;317;48.758;9.302;2022-08-19T13:55:08;20.50;99.90
670;DHT22;317;48.758;9.302;2022-08-19T13:57:35;20.50;99.90
670;DHT22;317;48.758;9.302;2022-08-19T14:00:06;20.40;99.90
670;DHT22;317;48.758;9.302;2022-08-19T14:02:33;20.40;99.90
670;DHT22;317;48.758;9.302;2022-08-19T14:05:00;20.40;99.90
670;DHT22;317;48.758;9.302;2022-08-19T14:07:27;20.40;99.90
670;DHT22;317;48.758;9.302;2022-08-19T14:09:55;20.30;99.90
670;DHT22;317;48.758;9.302;2022-08-19T14:12:22;20.30;99.90
670;DHT22;317;48.758;9.302;2022-08-19T14:14:49;20.30;99.90
670;DHT22;317;48.758;9.302;2022-08-19T14:17:16;20.30;99.90
670;DHT22;317;48.758;9.302;2022-08-19T14:19:43;20.30;99.90
670;DHT22;317;48.758;9.302;2022-08-19T14:22:10;20.30;99.90
670;DHT22;317;48.758;9.302;2022-08-19T14:24:38;20.30;99.90
670;DHT22;317;48.758;9.302;2022-08-19T14:27:07;20.30;99.90
670;DHT22;317;48.758;9.302;2022-08-19T14:29:35;20.20;99.90
670;DHT22;317;48.758;9.302;2022-08-19T14:32:02;20.30;99.90
670;DHT22;317;48.758;9.302;2022-08-19T14:34:29;20.30;99.90
670;DHT22;317;48.758;9.302;2022-08-19T14:36:57;20.30;99.90
670;DHT22;317;48.758;9.302;2022-08-19T14:39:23;20.30;99.90
670;DHT22;317;48.758;9.302;2022-08-19T14:41:50;20.30;99.90
670;DHT22;317;48.758;9.302;2022-08-19T14:44:18;20.40;99.90
670;DHT22;317;48.758;9.302;2022-08-19T14:46:45;20.40;99.90
670;DHT22;317;48.758;9.302;2022-08-19T14:49:12;20.40;99.90
670;DHT22;317;48.758;9.302;2022-08-19T14:51:39;20.40;99.90
670;DHT22;317;48.758;9.302;2022-08-19T14:54:06;20.50;99.90
670;DHT22;317;48.758;9.302;2022-08-19T14:56:35;20.60;99.90
670;DHT22;317;48.758;9.302;2022-08-19T14:59:02;20.60;99.90
670;DHT22;317;48.758;9.302;2022-08-19T15:01:30;20.70;99.90
670;DHT22;317;48.758;9.302;2022-08-19T15:03:57;20.70;99.90
670;DHT22;317;48.758;9.302;2022-08-19T15:06:25;20.70;99.90
670;DHT22;317;48.758;9.302;2022-08-19T15:08:53;20.70;99.90
670;DHT22;317;48.758;9.302;2022-08-19T15:11:22;20.70;99.90
670;DHT22;317;48.758;9.302;2022-08-19T15:13:50;20.80;99.90
670;DHT22;317;48.758;9.302;2022-08-19T15:16:19;20.80;99.90
670;DHT22;317;48.758;9.302;2022-08-19T15:18:50;20.80;99.90
670;DHT22;317;48.758;9.302;2022-08-19T15:21:20;20.90;99.90
670;DHT22;317;48.758;9.302;2022-08-19T15:23:48;20.90;99.90
670;DHT22;317;48.758;9.302;2022-08-19T15:26:16;21.00;99.90
670;DHT22;317;48.758;9.302;2022-08-19T15:28:44;21.00;99.90
670;DHT22;317;48.758;9.302;2022-08-19T15:31:12;21.00;99.90
670;DHT22;317;48.758;9.302;2022-08-19T15:33:39;21.10;99.90
670;DHT22;317;48.758;9.302;2022-08-19T15:36:11;21.10;99.90
670;DHT22;317;48.758;9.302;2022-08-19T15:38:39;21.30;99.90
670;DHT22;317;48.758;9.302;2022-08-19T15:41:16;21.40;99.90
670;DHT22;317;48.758;9.302;2022-08-19T15:43:50;21.80;99.90
670;DHT22;317;48.758;9.302;2022-08-19T15:46:19;22.20;99.90
670;DHT22;317;48.758;9.302;2022-08-19T15:48:46;22.60;99.90
670;DHT22;317;48.758;9.302;2022-08-19T15:51:15;22.70;99.90
670;DHT22;317;48.758;9.302;2022-08-19T15:53:42;22.80;99.90
670;DHT22;317;48.758;9.302;2022-08-19T15:56:10;22.30;99.90
670;DHT22;317;48.758;9.302;2022-08-19T15:58:38;21.90;99.90
670;DHT22;317;48.758;9.302;2022-08-19T16:01:23;21.90;99.90
670;DHT22;317;48.758;9.302;2022-08-19T16:04:07;22.20;99.90
670;DHT22;317;48.758;9.302;2022-08-19T16:07:01;22.30;99.90
670;DHT22;317;48.758;9.302;2022-08-19T16:09:30;22.30;99.90
670;DHT22;317;48.758;9.302;2022-08-19T16:12:01;22.30;99.90
670;DHT22;317;48.758;9.302;2022-08-19T16:14:29;22.30;99.90
670;DHT22;317;48.758;9.302;2022-08-19T16:16:57;22.30;99.90
670;DHT22;317;48.758;9.302;2022-08-19T16:19:25;22.30;99.90
670;DHT22;317;48.758;9.302;2022-08-19T16:21:54;22.30;99.90
670;DHT22;317;48.758;9.302;2022-08-19T16:24:26;22.40;99.90
670;DHT22;317;48.758;9.302;2022-08-19T16:26:54;22.50;99.90
670;DHT22;317;48.758;9.302;2022-08-19T16:29:22;22.60;99.90
670;DHT22;317;48.758;9.302;2022-08-19T16:31:49;22.70;99.90
670;DHT22;317;48.758;9.302;2022-08-19T16:34:18;22.80;99.90
670;DHT22;317;48.758;9.302;2022-08-19T16:36:45;22.70;99.90
670;DHT22;317;48.758;9.302;2022-08-19T16:39:14;22.70;99.90
670;DHT22;317;48.758;9.302;2022-08-19T16:41:43;22.80;99.90
670;DHT22;317;48.758;9.302;2022-08-19T16:44:13;22.60;99.90
670;DHT22;317;48.758;9.302;2022-08-19T16:46:40;22.30;99.90